Time;durP1;ratioP1;P1;durP2;ratioP2;P2;SDS_P1;SDS_P2;PMS_P1;PMS_P2;Temp;Humidity;BMP_temperature;BMP_pressure;BME280_temperature;BME280_humidity;BME280_pressure;Samples;Min_cycle;Max_cycle;Signal;HPM_P1;HPM_P2
2023/05/19 00:03:39;;;;;;;17.55;12.50;;;358.50;2329.60;;;;;;4796566;29;20124;-87
2023/05/19 00:10:17;;;;;;;23.25;15.05;;;358.40;2329.60;;;;;;4868400;29;20098;-87
2023/05/19 00:13:34;;;;;;;28.13;18.05;;;358.40;2329.60;;;;;;4839750;29;20603;-86
2023/05/19 00:16:47;;;;;;;26.20;16.27;;;358.40;2329.60;;;;;;4796375;29;20043;-87
2023/05/19 00:23:27;;;;;;;24.92;17.05;;;358.50;2329.60;;;;;;4745173;30;20043;-87
2023/05/19 00:33:23;;;;;;;20.88;12.13;;;358.50;2329.60;;;;;;4740268;30;20161;-87
2023/05/19 00:40:23;;;;;;;22.38;13.52;;;358.50;2329.60;;;;;;4753807;30;20138;-86
2023/05/19 00:43:19;;;;;;;21.60;13.95;;;358.50;2329.60;;;;;;4709664;30;20072;-87
2023/05/19 00:46:27;;;;;;;18.27;12.13;;;358.50;2329.60;;;;;;4701609;30;20072;-87
2023/05/19 00:53:37;;;;;;;18.88;11.60;;;358.50;2329.60;;;;;;4709359;30;20545;-87
2023/05/19 01:00:15;;;;;;;18.33;11.30;;;358.50;2329.60;;;;;;4721898;30;20552;-87
2023/05/19 01:04:10;;;;;;;16.50;10.63;;;358.50;2329.60;;;;;;4685961;30;20042;-87
2023/05/19 01:10:27;;;;;;;19.40;9.68;;;358.50;2329.60;;;;;;4668306;30;20053;-87
2023/05/19 01:13:47;;;;;;;19.98;10.48;;;358.50;2329.60;;;;;;4642112;30;20052;-87
2023/05/19 01:17:04;;;;;;;18.02;10.80;;;358.50;2329.60;;;;;;4730470;30;20060;-87
2023/05/19 01:20:41;;;;;;;16.50;9.43;;;358.60;2329.60;;;;;;4738847;30;20037;-86
2023/05/19 01:24:07;;;;;;;16.02;10.43;;;358.60;2329.60;;;;;;4686259;30;20459;-87
2023/05/19 01:31:18;;;;;;;18.85;9.38;;;358.70;2329.60;;;;;;4668950;30;20408;-86
2023/05/19 01:56:08;;;;;;;22.42;13.15;;;358.60;2329.60;;;;;;4684167;30;20151;-87
2023/05/19 02:00:04;;;;;;;20.77;13.55;;;358.60;2329.60;;;;;;4686029;30;20114;-87
2023/05/19 02:03:41;;;;;;;25.10;14.93;;;358.70;2329.60;;;;;;4652791;30;20045;-87
2023/05/19 02:07:05;;;;;;;26.38;16.70;;;358.70;2329.60;;;;;;4688073;30;20065;-86
2023/05/19 02:14:14;;;;;;;21.83;14.68;;;358.80;2329.60;;;;;;4738082;30;20144;-86
2023/05/19 02:17:35;;;;;;;23.08;14.15;;;358.80;2329.60;;;;;;4763314;30;20035;-86
2023/05/19 02:24:46;;;;;;;23.05;13.63;;;358.90;2329.60;;;;;;4720798;30;20039;-87
2023/05/19 02:28:20;;;;;;;20.42;11.90;;;358.90;2329.60;;;;;;4654547;30;20042;-87
2023/05/19 02:41:27;;;;;;;26.73;15.40;;;358.90;2329.60;;;;;;4610356;31;20110;-87
2023/05/19 02:44:53;;;;;;;26.92;15.75;;;359.00;2329.60;;;;;;4634890;31;20039;-87
2023/05/19 02:59:05;;;;;;;38.42;22.63;;;358.90;2329.60;;;;;;4695418;30;20087;-87
2023/05/19 03:13:06;;;;;;;32.35;19.02;;;358.90;2329.60;;;;;;4738038;30;20043;-87
2023/05/19 03:20:23;;;;;;;20.55;11.45;;;358.80;2329.60;;;;;;4741933;30;20035;-87
2023/05/19 03:27:35;;;;;;;19.02;12.23;;;358.90;2329.60;;;;;;4795118;29;20035;-87
2023/05/19 03:58:45;;;;;;;25.60;15.00;;;358.80;2329.60;;;;;;4802219;29;20046;-87
2023/05/19 04:02:05;;;;;;;21.80;14.35;;;358.80;2329.60;;;;;;4829188;29;20514;-87
2023/05/19 04:16:13;;;;;;;19.55;13.65;;;358.90;2329.60;;;;;;4756467;30;20087;-87
2023/05/19 04:41:29;;;;;;;19.17;14.73;;;359.10;2329.60;;;;;;4793514;30;20065;-86
2023/05/19 05:10:04;;;;;;;24.20;16.35;;;359.30;2329.60;;;;;;4830580;29;20037;-87
2023/05/19 05:17:21;;;;;;;22.38;17.30;;;384.00;2329.60;;;;;;4749236;30;20613;-87
2023/05/19 05:20:43;;;;;;;30.67;20.67;;;384.00;2329.60;;;;;;4695067;30;20083;-87
2023/05/19 05:24:13;;;;;;;26.52;17.02;;;384.00;2329.60;;;;;;4706627;30;20030;-87
2023/05/19 05:30:42;;;;;;;28.75;18.83;;;384.00;2329.60;;;;;;4705888;30;20079;-87
2023/05/19 05:33:44;;;;;;;29.27;17.45;;;384.00;2329.60;;;;;;4673715;30;20189;-87
2023/05/19 05:37:16;;;;;;;24.55;17.08;;;384.00;2329.60;;;;;;4662233;30;20049;-87
2023/05/19 05:40:46;;;;;;;24.40;15.25;;;384.10;2329.60;;;;;;4658747;30;20547;-86
2023/05/19 05:43:50;;;;;;;24.05;14.45;;;384.20;2329.60;;;;;;4680428;30;20514;-87
2023/05/19 05:47:14;;;;;;;21.55;14.18;;;384.20;2329.60;;;;;;4677263;30;20066;-87
2023/05/19 06:01:01;;;;;;;;;;;384.30;2329.60;;;;;;4742856;30;20042;-87
2023/05/19 06:07:49;;;;;;;22.08;12.85;;;384.30;2329.60;;;;;;4772673;30;20051;-87
2023/05/19 06:18:03;;;;;;;18.85;13.65;;;384.40;2329.60;;;;;;4795614;29;20099;-87
2023/05/19 06:21:32;;;;;;;21.45;14.63;;;384.40;2329.60;;;;;;4797054;29;20062;-87
2023/05/19 06:31:35;;;;;;;18.63;13.18;;;384.80;2329.60;;;;;;4757285;30;20139;-87
2023/05/19 06:34:52;;;;;;;19.10;14.18;;;384.80;2329.60;;;;;;4714995;30;20437;-87
2023/05/19 06:37:57;;;;;;;22.30;14.52;;;384.80;2329.60;;;;;;4708505;30;20452;-87
2023/05/19 06:41:30;;;;;;;22.33;14.43;;;384.90;2329.60;;;;;;4713284;30;20057;-87
2023/05/19 06:45:00;;;;;;;20.40;13.37;;;409.60;2355.20;;;;;;4756098;30;20537;-87
2023/05/19 06:48:21;;;;;;;19.27;14.48;;;409.70;2355.20;;;;;;4756413;30;20079;-88
2023/05/19 06:54:00;;;;;;;20.25;13.02;;;409.80;2355.20;;;;;;4741169;30;20044;-87
2023/05/19 06:57:13;;;;;;;20.50;13.75;;;409.80;2355.20;;;;;;4805811;29;20116;-87
2023/05/19 07:00:20;;;;;;;19.33;13.05;;;409.80;2355.20;;;;;;4772579;30;20123;-87
2023/05/19 07:04:04;;;;;;;17.25;13.10;;;409.90;2355.20;;;;;;4743046;30;20037;-87
2023/05/19 07:07:28;;;;;;;18.35;13.38;;;409.90;2355.20;;;;;;4736388;30;20048;-87
2023/05/19 07:11:11;;;;;;;22.42;14.68;;;410.00;2355.20;;;;;;4738920;30;20064;-87
2023/05/19 07:14:50;;;;;;;16.70;12.18;;;410.20;2355.20;;;;;;4720116;30;20364;-86
2023/05/19 07:21:36;;;;;;;16.92;12.90;;;410.40;2355.20;;;;;;4704395;30;20060;-88
2023/05/19 07:24:27;;;;;;;22.17;16.67;;;410.40;2355.20;;;;;;4674523;30;20047;-89
2023/05/19 07:26:54;;;;;;;20.13;15.90;;;410.40;2355.20;;;;;;4681283;30;20085;-89
2023/05/19 07:29:22;;;;;;;16.88;12.75;;;410.40;2355.20;;;;;;4706404;30;20061;-87
2023/05/19 07:32:14;;;;;;;16.33;12.82;;;410.50;2355.20;;;;;;4654734;30;20039;-88
2023/05/19 07:35:28;;;;;;;14.90;11.98;;;410.50;2355.20;;;;;;4670333;30;20441;-89
2023/05/19 07:48:24;;;;;;;19.27;15.77;;;435.20;2355.20;;;;;;4669125;30;20389;-88
2023/05/19 07:51:15;;;;;;;23.33;18.58;;;435.20;2355.20;;;;;;4710989;30;20036;-88
2023/05/19 07:54:14;;;;;;;24.20;16.35;;;435.20;2355.20;;;;;;4696920;30;20046;-89
2023/05/19 07:57:56;;;;;;;23.23;17.25;;;435.40;2355.20;;;;;;4692410;30;20080;-88
2023/05/19 08:01:03;;;;;;;19.70;13.55;;;435.50;2355.20;;;;;;4691221;30;20108;-89
2023/05/19 08:04:15;;;;;;;17.40;13.10;;;435.50;2355.20;;;;;;4688416;30;20491;-84
2023/05/19 08:07:07;;;;;;;16.00;11.95;;;435.60;2355.20;;;;;;4637383;31;20158;-83
2023/05/19 08:09:34;;;;;;;17.85;13.15;;;435.60;2355.20;;;;;;4633012;30;20049;-82
2023/05/19 08:12:31;;;;;;;17.85;12.95;;;435.60;2355.20;;;;;;4653287;30;20046;-84
2023/05/19 08:15:17;;;;;;;16.45;11.73;;;435.80;2355.20;;;;;;4650181;30;20061;-82
2023/05/19 08:17:52;;;;;;;17.53;12.80;;;435.60;2355.20;;;;;;4629787;30;20174;-82
2023/05/19 08:20:25;;;;;;;15.57;13.13;;;435.70;2355.20;;;;;;4637000;30;20373;-84
2023/05/19 08:22:59;;;;;;;18.98;13.25;;;435.70;2355.20;;;;;;4636729;31;20205;-83
2023/05/19 08:25:32;;;;;;;18.73;13.57;;;435.80;2355.20;;;;;;4624194;31;20051;-84
2023/05/19 08:28:02;;;;;;;26.15;14.52;;;436.00;2355.20;;;;;;4682198;30;20120;-84
2023/05/19 08:30:37;;;;;;;18.52;13.00;;;460.80;2380.80;;;;;;4704644;30;20122;-84
2023/05/19 08:33:04;;;;;;;19.05;13.55;;;460.90;2380.80;;;;;;4769614;30;20043;-82
2023/05/19 08:35:30;;;;;;;16.35;13.20;;;460.80;2380.80;;;;;;4759550;30;20032;-81
2023/05/19 08:38:01;;;;;;;15.05;11.93;;;460.80;2380.80;;;;;;4770319;30;20101;-84
2023/05/19 08:41:02;;;;;;;15.80;11.77;;;460.90;2380.80;;;;;;4837473;29;20040;-86
2023/05/19 08:43:30;;;;;;;18.65;13.60;;;460.90;2380.80;;;;;;4871309;29;20135;-83
2023/05/19 08:46:32;;;;;;;15.95;12.48;;;461.00;2380.80;;;;;;4871442;29;20037;-83
2023/05/19 08:49:10;;;;;;;17.45;12.35;;;460.80;2380.80;;;;;;4850807;29;20044;-81
2023/05/19 08:52:16;;;;;;;15.77;13.32;;;460.80;2380.80;;;;;;4866214;29;20442;-87
2023/05/19 08:55:48;;;;;;;23.42;13.40;;;461.00;2380.80;;;;;;4868749;29;20038;-88
2023/05/19 08:58:27;;;;;;;22.48;16.25;;;461.20;2380.80;;;;;;4813419;29;20134;-86
2023/05/19 09:01:22;;;;;;;17.27;13.95;;;461.20;2380.80;;;;;;4799236;29;20035;-87
2023/05/19 09:03:48;;;;;;;17.65;13.40;;;461.30;2380.80;;;;;;4864179;29;20512;-84
2023/05/19 09:06:15;;;;;;;18.48;12.32;;;461.40;2380.80;;;;;;4868428;29;20041;-84
2023/05/19 09:09:03;;;;;;;18.13;14.70;;;461.30;2380.80;;;;;;4868923;29;20059;-85
2023/05/19 09:11:39;;;;;;;15.85;12.98;;;461.40;2380.80;;;;;;4851842;29;20030;-87
2023/05/19 09:14:07;;;;;;;17.10;13.68;;;461.40;2380.80;;;;;;4836072;29;20038;-86
2023/05/19 09:16:34;;;;;;;20.00;13.93;;;461.40;2380.80;;;;;;4845164;29;20030;-85
2023/05/19 09:19:01;;;;;;;18.05;13.25;;;461.50;2380.80;;;;;;4857399;29;20033;-85
2023/05/19 09:21:32;;;;;;;20.30;13.32;;;486.40;2380.80;;;;;;4887161;29;20085;-88
2023/05/19 09:24:08;;;;;;;17.65;13.23;;;486.90;2380.80;;;;;;4868267;29;20048;-87
2023/05/19 09:30:25;;;;;;;18.30;12.93;;;512.20;2380.80;;;;;;4928488;29;20095;-85
2023/05/19 09:33:00;;;;;;;15.23;12.25;;;512.80;2380.80;;;;;;4911993;29;20044;-85
2023/05/19 09:35:33;;;;;;;14.70;12.43;;;512.80;2380.80;;;;;;4914389;29;20028;-86
2023/05/19 09:38:02;;;;;;;14.77;12.35;;;512.40;2380.80;;;;;;4912581;29;20076;-84
2023/05/19 09:41:18;;;;;;;17.63;12.93;;;512.20;2380.80;;;;;;4898014;29;20028;-86
2023/05/19 09:44:21;;;;;;;16.33;13.50;;;512.00;2380.80;;;;;;4910146;29;20070;-86
2023/05/19 09:46:50;;;;;;;17.17;12.23;;;487.30;2380.80;;;;;;4869265;29;20044;-84
2023/05/19 09:49:50;;;;;;;15.85;12.52;;;512.00;2380.80;;;;;;4872151;29;20057;-87
2023/05/19 09:53:19;;;;;;;14.95;12.23;;;512.00;2380.80;;;;;;4872834;29;20107;-88
2023/05/19 09:59:29;;;;;;;18.50;12.55;;;512.30;2380.80;;;;;;4830787;29;20046;-87
2023/05/19 10:02:34;;;;;;;15.82;11.70;;;512.00;2380.80;;;;;;4784913;30;20440;-87
2023/05/19 10:05:27;;;;;;;14.50;12.45;;;512.20;2380.80;;;;;;4813972;29;20042;-89
2023/05/19 10:08:23;;;;;;;16.00;12.23;;;512.30;2380.80;;;;;;4816031;29;20038;-87
2023/05/19 10:10:51;;;;;;;17.70;12.82;;;512.30;2380.80;;;;;;4803506;29;20140;-86
2023/05/19 10:13:18;;;;;;;14.85;12.48;;;512.10;2380.80;;;;;;4800982;29;20098;-85
2023/05/19 10:15:46;;;;;;;21.67;14.48;;;512.00;2380.80;;;;;;4810432;29;20042;-84
2023/05/19 10:18:16;;;;;;;18.15;13.93;;;512.00;2380.80;;;;;;4783549;30;20077;-87
2023/05/19 10:20:43;;;;;;;20.23;14.32;;;487.30;2380.80;;;;;;4797284;30;20135;-87
2023/05/19 10:23:10;;;;;;;16.40;13.30;;;487.30;2380.80;;;;;;4788321;29;20048;-87
2023/05/19 10:25:37;;;;;;;17.08;14.02;;;487.30;2380.80;;;;;;4780977;30;20040;-86
2023/05/19 10:28:09;;;;;;;20.25;14.13;;;512.00;2380.80;;;;;;4801550;29;20138;-84
2023/05/19 10:30:41;;;;;;;19.15;14.00;;;512.70;2380.80;;;;;;4835813;29;20027;-85
2023/05/19 10:33:12;;;;;;;18.15;15.10;;;538.00;2406.40;;;;;;4861592;29;20038;-81
2023/05/19 10:36:07;;;;;;;16.45;13.45;;;563.20;2432.00;;;;;;4913150;29;20039;-85
2023/05/19 10:39:34;;;;;;;17.40;13.77;;;538.40;2406.40;;;;;;4928298;29;20028;-83
2023/05/19 10:42:25;;;;;;;21.25;14.05;;;538.10;2406.40;;;;;;4923914;29;20102;-82
2023/05/19 10:45:17;;;;;;;15.75;12.85;;;538.00;2406.40;;;;;;4963323;29;20108;-82
2023/05/19 10:47:44;;;;;;;19.17;14.70;;;538.00;2406.40;;;;;;4968006;29;20090;-82
2023/05/19 10:50:13;;;;;;;19.13;13.50;;;537.80;2406.40;;;;;;4977184;29;20043;-82
2023/05/19 10:56:55;;;;;;;18.65;14.98;;;537.70;2406.40;;;;;;4938234;29;20144;-85
2023/05/19 11:00:43;;;;;;;19.33;16.25;;;537.70;2406.40;;;;;;4902031;29;20037;-87
2023/05/19 11:04:03;;;;;;;17.10;14.55;;;537.70;2406.40;;;;;;4825855;29;20123;-87
2023/05/19 11:06:56;;;;;;;22.40;15.48;;;537.60;2406.40;;;;;;4790910;30;20051;-86
2023/05/19 11:09:53;;;;;;;18.05;14.10;;;512.90;2380.80;;;;;;4797571;30;20047;-85
2023/05/19 11:16:11;;;;;;;16.48;14.13;;;538.30;2406.40;;;;;;4786256;30;20131;-82
2023/05/19 11:19:34;;;;;;;17.30;13.38;;;563.50;2432.00;;;;;;4793340;30;20412;-85
2023/05/19 11:22:13;;;;;;;18.17;14.75;;;563.90;2432.00;;;;;;4773441;29;20054;-87
2023/05/19 11:25:00;;;;;;;21.02;14.75;;;589.10;2432.00;;;;;;4754021;30;20047;-87
2023/05/19 11:27:51;;;;;;;17.85;13.90;;;589.20;2432.00;;;;;;4768333;30;20040;-87
2023/05/19 11:30:19;;;;;;;17.67;13.63;;;564.10;2432.00;;;;;;4786664;29;20059;-87
2023/05/19 11:32:47;;;;;;;21.95;15.60;;;588.80;2432.00;;;;;;4793089;29;20048;-87
2023/05/19 11:35:13;;;;;;;19.50;15.63;;;588.90;2432.00;;;;;;4805038;29;20046;-87
2023/05/19 11:37:41;;;;;;;16.98;14.38;;;588.90;2432.00;;;;;;4804448;29;20076;-87
2023/05/19 11:40:07;;;;;;;22.23;17.10;;;589.10;2432.00;;;;;;4823549;29;20122;-87
2023/05/19 11:42:35;;;;;;;18.02;15.20;;;589.10;2432.00;;;;;;4845983;29;20087;-87
2023/05/19 11:45:02;;;;;;;19.60;14.77;;;589.20;2432.00;;;;;;4866504;29;20044;-86
2023/05/19 11:47:30;;;;;;;18.60;14.40;;;589.40;2432.00;;;;;;4914354;29;20036;-88
2023/05/19 11:49:56;;;;;;;17.58;14.23;;;589.70;2432.00;;;;;;4884661;29;20071;-84
2023/05/19 11:52:22;;;;;;;19.05;14.23;;;614.50;2432.00;;;;;;4882987;29;20052;-84
2023/05/19 11:54:48;;;;;;;20.40;15.35;;;614.40;2406.40;;;;;;4900641;29;20473;-88
2023/05/19 11:57:14;;;;;;;16.77;14.25;;;614.40;2432.00;;;;;;4940085;29;20407;-86
2023/05/19 11:59:46;;;;;;;16.98;14.05;;;614.70;2380.80;;;;;;4939109;29;20032;-88
2023/05/19 12:02:16;;;;;;;20.48;14.27;;;614.90;2380.80;;;;;;4957013;28;20032;-90
2023/05/19 12:04:42;;;;;;;15.90;13.75;;;614.60;2380.80;;;;;;4957193;29;20031;-88
2023/05/19 12:07:11;;;;;;;15.95;13.60;;;614.50;2406.40;;;;;;4958512;29;20086;-85
2023/05/19 12:09:37;;;;;;;18.17;15.18;;;589.60;2432.00;;;;;;4956812;29;20030;-82
2023/05/19 12:12:03;;;;;;;17.15;14.55;;;614.70;2432.00;;;;;;4942086;29;20031;-87
2023/05/19 12:14:30;;;;;;;18.15;15.35;;;614.70;2406.40;;;;;;4956868;29;20031;-86
2023/05/19 12:16:56;;;;;;;21.55;15.48;;;614.80;2406.40;;;;;;4968998;28;20543;-88
2023/05/19 12:19:25;;;;;;;17.45;14.48;;;614.80;2406.40;;;;;;4957156;29;20031;-86
2023/05/19 12:21:52;;;;;;;18.75;15.32;;;615.30;2380.80;;;;;;4956531;29;20026;-85
2023/05/19 12:24:20;;;;;;;17.25;14.43;;;615.30;2329.60;;;;;;4941834;29;20040;-86
2023/05/19 12:26:46;;;;;;;16.27;13.82;;;615.30;2329.60;;;;;;4938049;29;20086;-87
2023/05/19 12:29:12;;;;;;;21.17;15.38;;;640.00;2304.00;;;;;;4938815;29;20130;-86
2023/05/19 12:31:38;;;;;;;21.40;15.60;;;640.10;2304.00;;;;;;4939939;29;20527;-82
2023/05/19 12:34:04;;;;;;;20.38;15.73;;;640.50;2304.00;;;;;;4941757;29;20070;-86
2023/05/19 12:36:31;;;;;;;19.02;15.00;;;640.50;2278.40;;;;;;4940376;29;20031;-84
2023/05/19 12:38:57;;;;;;;20.40;17.20;;;640.70;2278.40;;;;;;4958667;29;20031;-83
2023/05/19 12:41:28;;;;;;;20.20;16.92;;;640.50;2278.40;;;;;;4957207;29;20384;-86
2023/05/19 12:43:54;;;;;;;28.23;20.83;;;640.70;2252.80;;;;;;4940965;29;20028;-84
2023/05/19 12:46:21;;;;;;;27.15;19.77;;;640.50;2278.40;;;;;;4956726;28;20305;-86
2023/05/19 12:48:47;;;;;;;35.20;22.80;;;640.70;2329.60;;;;;;4973669;28;20027;-85
2023/05/19 12:51:19;;;;;;;82.28;43.95;;;640.90;2278.40;;;;;;4957813;29;20031;-86
2023/05/19 12:53:46;;;;;;;30.95;22.95;;;640.90;2227.20;;;;;;4957262;29;20069;-83
2023/05/19 12:56:15;;;;;;;22.75;17.25;;;665.80;2252.80;;;;;;4972191;28;20054;-84
2023/05/19 12:58:41;;;;;;;20.42;16.48;;;665.90;2227.20;;;;;;4957531;28;20030;-84
2023/05/19 13:01:15;;;;;;;20.77;17.00;;;665.90;2252.80;;;;;;4956440;29;20095;-85
2023/05/19 13:03:41;;;;;;;20.10;15.38;;;665.80;2252.80;;;;;;4941556;29;20027;-85
2023/05/19 13:06:08;;;;;;;22.30;16.90;;;665.80;2227.20;;;;;;4940006;29;20032;-84
2023/05/19 13:08:34;;;;;;;16.95;14.93;;;665.70;2227.20;;;;;;4940908;29;20042;-85
2023/05/19 13:11:00;;;;;;;18.38;15.35;;;640.90;2227.20;;;;;;4955874;29;20027;-85
2023/05/19 13:13:26;;;;;;;20.58;15.48;;;640.90;2227.20;;;;;;4957852;29;20024;-85
2023/05/19 13:15:52;;;;;;;19.52;15.68;;;665.70;2227.20;;;;;;4939718;29;20034;-85
2023/05/19 13:18:18;;;;;;;17.20;15.18;;;665.70;2252.80;;;;;;4956929;28;20059;-84
2023/05/19 13:20:45;;;;;;;19.40;14.73;;;665.80;2227.20;;;;;;4971773;28;20058;-85
2023/05/19 13:23:12;;;;;;;18.23;15.05;;;640.90;2227.20;;;;;;4958878;28;20031;-83
2023/05/19 13:25:39;;;;;;;16.48;14.77;;;640.90;2201.60;;;;;;4940175;29;20459;-83
2023/05/19 13:28:05;;;;;;;20.20;15.55;;;665.80;2252.80;;;;;;4956381;29;20035;-85
2023/05/19 13:30:37;;;;;;;18.73;15.13;;;665.70;2227.20;;;;;;4956779;29;20118;-85
2023/05/19 13:33:03;;;;;;;20.15;15.02;;;666.00;2227.20;;;;;;4960924;28;20051;-84
2023/05/19 13:35:35;;;;;;;17.90;14.85;;;666.10;2201.60;;;;;;4956297;29;20156;-85
2023/05/19 13:38:05;;;;;;;18.23;15.35;;;666.20;2201.60;;;;;;4956718;29;20059;-83
2023/05/19 13:40:33;;;;;;;19.63;15.63;;;666.40;2201.60;;;;;;4940769;29;20082;-82
2023/05/19 13:43:01;;;;;;;17.52;14.85;;;666.40;2176.00;;;;;;4938077;29;20019;-81
2023/05/19 13:45:27;;;;;;;18.58;15.55;;;666.50;2176.00;;;;;;4939649;29;20364;-84
2023/05/19 13:47:53;;;;;;;19.60;15.40;;;666.50;2150.40;;;;;;4955967;29;20130;-83
2023/05/19 13:50:19;;;;;;;21.10;15.48;;;691.20;2176.00;;;;;;4947195;29;20086;-84
2023/05/19 13:52:45;;;;;;;18.65;14.48;;;691.60;2150.40;;;;;;4951877;29;20019;-85
2023/05/19 13:55:11;;;;;;;16.85;14.98;;;691.70;2150.40;;;;;;4939526;29;20431;-83
2023/05/19 13:57:37;;;;;;;19.75;16.30;;;691.70;2150.40;;;;;;4937947;29;20027;-84
2023/05/19 14:00:04;;;;;;;15.98;14.27;;;691.70;2150.40;;;;;;4955472;29;20031;-83
2023/05/19 14:02:32;;;;;;;16.58;14.70;;;691.70;2124.80;;;;;;4955448;29;20490;-83
2023/05/19 14:04:58;;;;;;;18.17;13.48;;;691.80;2099.20;;;;;;4938827;29;20035;-84
2023/05/19 14:07:24;;;;;;;18.88;15.70;;;691.70;2099.20;;;;;;4939627;29;20163;-83
2023/05/19 14:09:51;;;;;;;20.23;14.40;;;691.70;2124.80;;;;;;4956685;29;20476;-83
2023/05/19 14:12:16;;;;;;;23.88;15.50;;;691.60;2124.80;;;;;;4939247;29;20114;-85
2023/05/19 14:14:42;;;;;;;22.30;15.88;;;691.50;2124.80;;;;;;4939811;29;20055;-84
2023/05/19 14:17:08;;;;;;;18.05;14.98;;;691.70;2150.40;;;;;;4937702;29;20023;-86
2023/05/19 14:19:34;;;;;;;17.17;15.05;;;691.80;2124.80;;;;;;4956719;29;20456;-84
2023/05/19 14:21:59;;;;;;;19.80;15.38;;;691.50;2176.00;;;;;;4966527;28;20031;-85
2023/05/19 14:24:25;;;;;;;25.77;14.45;;;691.60;2150.40;;;;;;4956141;29;20476;-84
2023/05/19 14:26:52;;;;;;;17.35;15.23;;;691.20;2150.40;;;;;;4938527;29;20035;-84
2023/05/19 14:29:18;;;;;;;17.50;14.45;;;666.10;2201.60;;;;;;4971788;28;20055;-83
2023/05/19 14:31:43;;;;;;;19.88;15.20;;;666.10;2201.60;;;;;;4954262;29;20114;-84
2023/05/19 14:34:09;;;;;;;15.95;14.27;;;666.40;2150.40;;;;;;4955908;29;20070;-83
2023/05/19 14:36:35;;;;;;;16.63;13.18;;;691.20;2150.40;;;;;;4938370;29;20478;-84
2023/05/19 14:39:01;;;;;;;15.82;13.48;;;691.40;2150.40;;;;;;4939581;29;20031;-87
2023/05/19 14:41:27;;;;;;;15.55;13.57;;;691.40;2124.80;;;;;;4939085;29;20027;-84
2023/05/19 14:43:54;;;;;;;16.17;13.77;;;691.80;2124.80;;;;;;4955757;29;20047;-84
2023/05/19 14:46:20;;;;;;;23.17;16.45;;;691.60;2099.20;;;;;;4956132;29;20094;-84
2023/05/19 14:48:46;;;;;;;16.67;14.43;;;691.60;2124.80;;;;;;4938873;29;20415;-85
2023/05/19 14:51:12;;;;;;;22.92;16.67;;;691.70;2099.20;;;;;;4939515;29;20031;-85
2023/05/19 14:53:37;;;;;;;15.07;13.55;;;691.70;2099.20;;;;;;4938362;29;20027;-84
2023/05/19 14:56:04;;;;;;;17.60;14.13;;;691.70;2099.20;;;;;;4939267;29;20463;-86
2023/05/19 14:58:29;;;;;;;18.63;15.15;;;691.70;2099.20;;;;;;4937849;29;20027;-86
2023/05/19 15:00:58;;;;;;;18.70;16.77;;;691.80;2099.20;;;;;;4955326;29;20019;-85
2023/05/19 15:03:24;;;;;;;19.40;14.93;;;691.80;2099.20;;;;;;4937614;29;20055;-83
2023/05/19 15:05:50;;;;;;;16.50;14.00;;;691.80;2099.20;;;;;;4938130;29;20070;-84
2023/05/19 15:08:16;;;;;;;16.33;13.52;;;691.70;2073.60;;;;;;4938664;29;20031;-83
2023/05/19 15:10:41;;;;;;;17.55;14.07;;;691.70;2099.20;;;;;;4959461;29;20528;-84
2023/05/19 15:13:07;;;;;;;16.48;13.68;;;691.60;2099.20;;;;;;4941475;29;20466;-85
2023/05/19 15:15:33;;;;;;;18.30;14.77;;;691.70;2073.60;;;;;;4939970;29;20083;-85
2023/05/19 15:17:59;;;;;;;14.43;12.93;;;691.50;2073.60;;;;;;4954218;28;20059;-84
2023/05/19 15:20:25;;;;;;;14.13;12.07;;;691.40;2099.20;;;;;;4958296;29;20474;-86
2023/05/19 15:22:50;;;;;;;13.00;11.60;;;691.40;2073.60;;;;;;4942292;29;20042;-84
2023/05/19 15:25:16;;;;;;;13.90;12.00;;;691.20;2048.00;;;;;;4958726;29;20042;-84
2023/05/19 15:27:42;;;;;;;18.10;15.55;;;666.30;2099.20;;;;;;4972918;28;20027;-82
2023/05/19 15:30:08;;;;;;;16.48;13.75;;;666.40;2099.20;;;;;;4974609;28;20054;-82
2023/05/19 15:32:34;;;;;;;16.70;13.45;;;666.50;2124.80;;;;;;4966892;28;20070;-83
2023/05/19 15:34:59;;;;;;;16.67;14.68;;;666.20;2124.80;;;;;;4958938;29;20094;-82
2023/05/19 15:37:25;;;;;;;19.08;15.18;;;666.10;2150.40;;;;;;4944167;29;20035;-85
2023/05/19 15:39:51;;;;;;;18.40;15.05;;;666.00;2150.40;;;;;;4946171;29;20383;-84
2023/05/19 15:42:17;;;;;;;19.33;15.60;;;666.00;2150.40;;;;;;4958880;29;20055;-82
2023/05/19 15:44:44;;;;;;;18.73;13.25;;;665.90;2124.80;;;;;;4958168;29;20398;-87
2023/05/19 15:47:10;;;;;;;14.98;12.65;;;666.00;2150.40;;;;;;4958324;29;20119;-87
2023/05/19 15:49:36;;;;;;;16.73;13.65;;;665.90;2176.00;;;;;;4958287;29;20054;-84
2023/05/19 15:52:03;;;;;;;17.75;14.10;;;665.60;2176.00;;;;;;4958103;29;20031;-84
2023/05/19 15:54:28;;;;;;;18.40;13.93;;;640.90;2176.00;;;;;;4942080;29;20074;-85
2023/05/19 15:56:54;;;;;;;25.45;14.82;;;640.60;2201.60;;;;;;4941171;29;20055;-84
2023/05/19 15:59:20;;;;;;;21.42;17.55;;;640.40;2201.60;;;;;;4942652;29;20035;-85
2023/05/19 16:01:46;;;;;;;19.25;15.65;;;640.10;2252.80;;;;;;4937413;29;20028;-83
2023/05/19 16:04:12;;;;;;;16.58;14.52;;;615.20;2278.40;;;;;;4938502;29;20044;-84
2023/05/19 16:06:38;;;;;;;21.42;15.15;;;615.00;2304.00;;;;;;4951622;29;20031;-85
2023/05/19 16:09:03;;;;;;;21.42;17.30;;;614.90;2304.00;;;;;;4941845;29;20031;-81
2023/05/19 16:11:29;;;;;;;17.10;14.23;;;614.80;2329.60;;;;;;4957746;29;20075;-85
2023/05/19 16:13:55;;;;;;;21.80;15.70;;;614.80;2355.20;;;;;;4942205;29;20034;-82
2023/05/19 16:16:21;;;;;;;21.55;16.25;;;614.70;2355.20;;;;;;4939690;29;20090;-85
2023/05/19 16:18:47;;;;;;;18.77;15.77;;;614.70;2380.80;;;;;;4957549;29;20475;-84
2023/05/19 16:21:12;;;;;;;17.35;15.38;;;614.50;2380.80;;;;;;4954908;28;20027;-85
2023/05/19 16:23:38;;;;;;;19.85;14.80;;;614.40;2380.80;;;;;;4957523;29;20031;-84
2023/05/19 16:26:04;;;;;;;22.20;16.05;;;589.70;2380.80;;;;;;4956148;29;20031;-87
2023/05/19 16:28:31;;;;;;;20.38;16.83;;;589.70;2432.00;;;;;;4941395;29;20054;-85
2023/05/19 16:30:58;;;;;;;18.17;15.15;;;589.70;2406.40;;;;;;4956466;29;20086;-83
2023/05/19 16:33:25;;;;;;;23.20;17.92;;;589.50;2432.00;;;;;;4956502;29;20460;-84
2023/05/19 16:35:51;;;;;;;27.45;20.70;;;589.40;2432.00;;;;;;4973079;28;20086;-81
2023/05/19 16:38:17;;;;;;;28.80;23.60;;;589.20;2432.00;;;;;;4959125;28;20031;-84
2023/05/19 16:40:43;;;;;;;20.45;17.35;;;589.30;2432.00;;;;;;4956918;29;20027;-86
2023/05/19 16:43:09;;;;;;;17.98;16.08;;;589.10;2432.00;;;;;;4957693;29;20042;-84
2023/05/19 16:45:35;;;;;;;16.95;15.25;;;588.90;2432.00;;;;;;4957417;29;20456;-84
2023/05/19 16:48:01;;;;;;;19.65;17.05;;;588.90;2432.00;;;;;;4963294;28;20094;-86
2023/05/19 16:50:27;;;;;;;19.90;17.00;;;588.80;2432.00;;;;;;4941440;29;20027;-86
2023/05/19 16:52:53;;;;;;;23.80;17.48;;;588.80;2432.00;;;;;;4939847;29;20051;-86
2023/05/19 16:55:19;;;;;;;21.77;17.40;;;564.10;2432.00;;;;;;4958039;29;20035;-85
2023/05/19 16:57:45;;;;;;;19.50;17.48;;;564.00;2432.00;;;;;;4940275;29;20035;-84
2023/05/19 17:00:12;;;;;;;19.98;17.55;;;563.80;2432.00;;;;;;4956362;29;20046;-86
2023/05/19 17:02:37;;;;;;;25.85;17.45;;;563.80;2432.00;;;;;;4940056;29;20027;-84
2023/05/19 17:05:04;;;;;;;20.92;17.10;;;563.80;2432.00;;;;;;4956524;29;20039;-86
2023/05/19 17:07:29;;;;;;;19.15;17.13;;;563.60;2432.00;;;;;;4941118;29;20082;-85
2023/05/19 17:09:55;;;;;;;21.92;16.73;;;563.60;2432.00;;;;;;4940272;29;20035;-85
2023/05/19 17:12:22;;;;;;;19.65;16.48;;;563.50;2432.00;;;;;;4940768;29;20031;-85
2023/05/19 17:14:49;;;;;;;20.38;18.38;;;563.50;2432.00;;;;;;4956450;29;20039;-88
2023/05/19 17:17:15;;;;;;;20.02;17.75;;;563.40;2432.00;;;;;;4971418;28;20030;-85
2023/05/19 17:19:41;;;;;;;20.73;18.45;;;563.40;2432.00;;;;;;4956134;29;20031;-83
2023/05/19 17:22:07;;;;;;;20.80;17.60;;;563.20;2432.00;;;;;;4939637;29;20035;-84
2023/05/19 17:24:33;;;;;;;27.15;17.33;;;563.20;2432.00;;;;;;4956444;29;20042;-84
2023/05/19 17:26:59;;;;;;;20.17;17.02;;;563.20;2432.00;;;;;;4939479;29;20082;-85
2023/05/19 17:29:28;;;;;;;22.83;17.42;;;538.50;2406.40;;;;;;4944911;29;20059;-81
2023/05/19 17:31:54;;;;;;;18.55;16.50;;;538.50;2406.40;;;;;;4940358;29;20031;-86